createdAt,value
2023-02-23T00:00:39.552Z,17.48
2023-02-23T00:03:10.017Z,16.33
2023-02-23T00:05:37.766Z,17.00
2023-02-23T00:08:08.267Z,17.83
2023-02-23T00:10:35.743Z,16.88
2023-02-23T00:13:05.650Z,17.55
2023-02-23T00:15:33.045Z,17.58
2023-02-23T00:18:04.621Z,17.17
2023-02-23T00:20:44.446Z,18.15
2023-02-23T00:23:12.709Z,17.70
2023-02-23T00:25:45.647Z,18.48
2023-02-23T00:28:16.469Z,16.95
2023-02-23T00:30:48.847Z,17.15
2023-02-23T00:33:23.255Z,19.08
2023-02-23T00:35:55.516Z,15.95
2023-02-23T00:38:25.899Z,17.83
2023-02-23T00:40:54.715Z,16.70
2023-02-23T00:43:25.193Z,16.88
2023-02-23T00:45:55.750Z,17.45
2023-02-23T00:48:29.205Z,17.52
2023-02-23T00:51:04.623Z,17.52
2023-02-23T00:53:33.405Z,15.98
2023-02-23T00:56:11.292Z,16.80
2023-02-23T00:58:41.510Z,15.88
2023-02-23T01:01:15.528Z,16.30
2023-02-23T01:06:13.485Z,16.40
2023-02-23T01:08:43.918Z,17.98
2023-02-23T01:11:17.475Z,17.13
2023-02-23T01:16:27.961Z,16.65
2023-02-23T01:19:00.438Z,16.55
2023-02-23T01:21:42.406Z,17.67
2023-02-23T01:24:15.957Z,18.23
2023-02-23T01:26:47.407Z,17.35
2023-02-23T01:29:18.915Z,16.60
2023-02-23T01:31:52.296Z,17.02
2023-02-23T01:34:24.065Z,15.85
2023-02-23T01:36:51.472Z,18.63
2023-02-23T01:39:20.828Z,15.95
2023-02-23T01:41:51.880Z,17.42
2023-02-23T01:44:19.341Z,17.58
2023-02-23T01:46:53.354Z,16.67
2023-02-23T01:49:28.411Z,16.63
2023-02-23T01:52:06.712Z,16.55
2023-02-23T01:54:51.932Z,15.95
2023-02-23T01:57:24.906Z,17.20
2023-02-23T01:59:55.000Z,17.25
2023-02-23T02:02:33.392Z,16.52
2023-02-23T02:05:13.343Z,18.63
2023-02-23T02:07:48.962Z,16.77
2023-02-23T02:10:39.709Z,18.55
2023-02-23T02:13:10.438Z,17.08
2023-02-23T02:15:58.888Z,18.77
2023-02-23T02:18:41.668Z,16.73
2023-02-23T02:21:14.824Z,16.83
2023-02-23T02:23:51.137Z,16.35
2023-02-23T02:26:33.587Z,16.25
2023-02-23T02:29:42.168Z,16.40
2023-02-23T02:32:34.709Z,16.60
2023-02-23T02:35:05.752Z,16.92
2023-02-23T02:37:56.923Z,15.95
2023-02-23T02:40:53.182Z,16.30
2023-02-23T02:43:36.176Z,16.17
2023-02-23T02:46:12.261Z,16.30
2023-02-23T02:48:57.656Z,16.92
2023-02-23T02:51:35.106Z,15.88
2023-02-23T02:54:36.657Z,17.60
2023-02-23T02:57:15.625Z,17.05
2023-02-23T03:00:10.276Z,16.15
2023-02-23T03:02:58.839Z,15.77
2023-02-23T03:05:54.265Z,15.10
2023-02-23T03:08:51.958Z,16.60
2023-02-23T03:11:38.258Z,15.45
2023-02-23T03:14:35.636Z,17.05
2023-02-23T03:18:01.536Z,17.27
2023-02-23T03:21:04.318Z,17.38
2023-02-23T03:24:02.971Z,15.35
2023-02-23T03:27:17.850Z,16.48
2023-02-23T03:30:36.289Z,16.77
2023-02-23T03:33:37.817Z,16.52
2023-02-23T03:36:32.403Z,16.20
2023-02-23T03:39:23.380Z,17.05
2023-02-23T03:42:12.526Z,17.25
2023-02-23T03:45:04.027Z,17.63
2023-02-23T03:47:54.202Z,15.32
2023-02-23T03:50:49.385Z,17.27
2023-02-23T03:53:53.557Z,15.00
2023-02-23T03:56:46.607Z,16.17
2023-02-23T03:59:37.306Z,17.08
2023-02-23T04:02:29.028Z,16.35
2023-02-23T04:05:19.205Z,16.10
2023-02-23T04:08:11.119Z,17.25
2023-02-23T04:11:04.932Z,16.63
2023-02-23T04:13:40.572Z,16.48
2023-02-23T04:16:11.481Z,17.20
2023-02-23T04:18:45.185Z,17.27
2023-02-23T04:23:48.490Z,17.92
2023-02-23T04:26:21.184Z,16.98
2023-02-23T04:28:54.527Z,16.73
2023-02-23T04:31:25.361Z,16.90
2023-02-23T04:33:55.716Z,16.50
2023-02-23T04:36:26.930Z,14.82
2023-02-23T04:38:57.690Z,17.10
2023-02-23T04:41:28.560Z,16.70
2023-02-23T04:43:59.110Z,16.33
2023-02-23T04:46:30.560Z,15.80
2023-02-23T04:49:01.047Z,16.05
2023-02-23T04:51:36.649Z,15.38
2023-02-23T04:54:05.118Z,16.25
2023-02-23T04:56:35.528Z,16.98
2023-02-23T04:59:05.313Z,17.83
2023-02-23T05:01:32.995Z,15.32
2023-02-23T05:04:02.919Z,16.50
2023-02-23T05:06:30.970Z,16.23
2023-02-23T05:09:07.237Z,16.02
2023-02-23T05:11:38.101Z,16.40
2023-02-23T05:14:05.611Z,17.17
2023-02-23T05:16:36.028Z,17.52
2023-02-23T05:19:03.651Z,17.42
2023-02-23T05:21:31.544Z,17.05
2023-02-23T05:24:00.260Z,17.77
2023-02-23T05:26:28.009Z,17.52
2023-02-23T05:28:58.225Z,16.15
2023-02-23T05:31:28.924Z,18.27
2023-02-23T05:36:29.054Z,15.40
2023-02-23T05:39:00.441Z,16.20
2023-02-23T05:41:30.513Z,16.85
2023-02-23T05:44:01.120Z,16.95
2023-02-23T05:46:31.933Z,16.85
2023-02-23T05:49:01.307Z,16.08
2023-02-23T05:51:34.903Z,17.33
2023-02-23T05:54:05.340Z,15.90
2023-02-23T05:56:32.715Z,16.80
2023-02-23T05:59:07.688Z,16.60
2023-02-23T06:01:38.649Z,16.90
2023-02-23T06:04:09.166Z,17.67
2023-02-23T06:06:40.021Z,16.48
2023-02-23T06:09:10.585Z,16.55
2023-02-23T06:11:43.060Z,16.90
2023-02-23T06:14:10.638Z,16.55
2023-02-23T06:16:45.183Z,18.60
2023-02-23T06:19:16.118Z,16.25
2023-02-23T06:21:44.691Z,15.77
2023-02-23T06:24:12.343Z,16.92
2023-02-23T06:26:48.737Z,17.55
2023-02-23T06:29:17.073Z,16.23
2023-02-23T06:31:52.810Z,16.45
2023-02-23T06:34:21.282Z,16.50
2023-02-23T06:36:52.944Z,18.58
2023-02-23T06:39:28.528Z,17.05
2023-02-23T06:42:01.777Z,16.60
2023-02-23T06:44:35.342Z,16.20
2023-02-23T06:47:06.149Z,16.98
2023-02-23T06:49:37.252Z,16.13
2023-02-23T06:52:04.710Z,16.65
2023-02-23T06:54:34.143Z,21.98
2023-02-23T06:57:10.717Z,23.92
2023-02-23T06:59:42.878Z,30.65
2023-02-23T07:02:17.122Z,24.15
2023-02-23T07:04:47.535Z,19.98
2023-02-23T07:07:22.720Z,21.38
2023-02-23T07:09:50.448Z,19.70
2023-02-23T07:12:25.593Z,21.70
2023-02-23T07:14:55.310Z,21.40
2023-02-23T07:17:30.772Z,20.55
2023-02-23T07:19:58.515Z,21.10
2023-02-23T07:22:30.388Z,20.55
2023-02-23T07:25:04.974Z,19.33
2023-02-23T07:27:39.035Z,20.48
2023-02-23T07:30:12.536Z,20.15
2023-02-23T07:32:54.468Z,19.05
2023-02-23T07:35:24.947Z,19.52
2023-02-23T07:37:55.967Z,20.67
2023-02-23T07:40:34.510Z,19.38
2023-02-23T07:43:08.044Z,19.88
2023-02-23T07:45:49.270Z,18.52
2023-02-23T07:48:29.011Z,17.88
2023-02-23T07:51:10.452Z,18.73
2023-02-23T07:53:45.033Z,18.25
2023-02-23T07:56:25.960Z,16.77
2023-02-23T07:59:09.913Z,18.75
2023-02-23T08:01:46.027Z,17.52
2023-02-23T08:04:26.675Z,19.45
2023-02-23T08:06:58.540Z,17.63
2023-02-23T08:09:32.716Z,18.70
2023-02-23T08:12:05.456Z,17.27
2023-02-23T08:14:33.403Z,18.10
2023-02-23T08:17:06.697Z,17.80
2023-02-23T08:19:37.601Z,17.38
2023-02-23T08:22:11.499Z,17.25
2023-02-23T08:24:43.030Z,18.65
2023-02-23T08:27:15.464Z,18.40
2023-02-23T08:29:49.278Z,18.77
2023-02-23T08:32:22.917Z,18.23
2023-02-23T08:34:55.075Z,17.92
2023-02-23T08:37:25.521Z,17.65
2023-02-23T08:39:57.044Z,18.52
2023-02-23T08:42:28.097Z,17.10
2023-02-23T08:44:55.645Z,18.83
2023-02-23T08:47:30.150Z,17.30
2023-02-23T08:50:03.682Z,18.40
2023-02-23T08:52:34.161Z,18.67
2023-02-23T08:55:06.072Z,17.77
2023-02-23T08:57:35.455Z,17.17
2023-02-23T09:00:14.351Z,18.05
2023-02-23T09:02:48.571Z,17.17
2023-02-23T09:05:21.903Z,17.20
2023-02-23T09:07:52.677Z,18.05
2023-02-23T09:10:25.082Z,18.83
2023-02-23T09:12:58.158Z,18.40
2023-02-23T09:15:28.083Z,17.42
2023-02-23T09:18:03.518Z,17.77
2023-02-23T09:20:33.870Z,17.23
2023-02-23T09:23:10.335Z,18.65
2023-02-23T09:25:45.290Z,18.08
2023-02-23T09:28:18.672Z,17.50
2023-02-23T09:30:49.442Z,19.15
2023-02-23T09:33:26.462Z,18.25
2023-02-23T09:36:02.573Z,17.52
2023-02-23T09:38:38.531Z,18.20
2023-02-23T09:41:31.197Z,18.20
2023-02-23T09:44:26.523Z,17.88
2023-02-23T09:47:21.800Z,18.02
2023-02-23T09:50:00.349Z,19.25
2023-02-23T09:52:42.635Z,18.90
2023-02-23T09:55:21.834Z,17.98
2023-02-23T09:57:55.033Z,20.20
2023-02-23T10:00:31.000Z,17.63
2023-02-23T10:03:04.405Z,18.45
2023-02-23T10:05:38.260Z,17.02
2023-02-23T10:08:37.280Z,16.50
2023-02-23T10:11:43.857Z,17.13
2023-02-23T10:14:33.217Z,17.88
2023-02-23T10:17:55.382Z,16.45
2023-02-23T10:20:50.966Z,17.27
2023-02-23T10:23:33.829Z,17.95
2023-02-23T10:26:15.827Z,17.92
2023-02-23T10:28:46.985Z,16.55
2023-02-23T10:31:24.311Z,16.33
2023-02-23T10:33:57.476Z,17.13
2023-02-23T10:36:46.359Z,16.48
2023-02-23T10:39:17.043Z,18.27
2023-02-23T10:41:49.404Z,16.90
2023-02-23T10:44:27.504Z,18.00
2023-02-23T10:47:03.481Z,16.85
2023-02-23T10:49:48.307Z,16.67
2023-02-23T10:52:42.649Z,16.45
2023-02-23T10:55:28.831Z,18.20
2023-02-23T10:58:19.431Z,16.55
2023-02-23T11:00:53.344Z,16.08
2023-02-23T11:03:43.252Z,16.15
2023-02-23T11:06:35.235Z,14.98
2023-02-23T11:09:45.051Z,15.73
2023-02-23T11:12:25.493Z,16.85
2023-02-23T11:14:55.718Z,15.75
2023-02-23T11:17:37.953Z,17.15
2023-02-23T11:20:28.421Z,16.70
2023-02-23T11:23:13.983Z,15.73
2023-02-23T11:25:45.252Z,18.48
2023-02-23T11:28:24.925Z,17.88
2023-02-23T11:30:55.932Z,17.67
2023-02-23T11:33:36.264Z,18.70
2023-02-23T11:36:24.396Z,17.33
2023-02-23T11:39:16.616Z,15.35
2023-02-23T11:41:47.892Z,15.85
2023-02-23T11:44:26.031Z,16.55
2023-02-23T11:46:54.045Z,16.75
2023-02-23T11:49:33.355Z,17.25
2023-02-23T11:52:03.733Z,15.32
2023-02-23T11:54:40.879Z,17.05
2023-02-23T11:57:25.326Z,15.95
2023-02-23T12:00:07.401Z,17.25
2023-02-23T12:02:51.201Z,16.23
2023-02-23T12:05:31.325Z,16.25
2023-02-23T12:08:16.853Z,16.73
2023-02-23T12:10:56.308Z,15.82
2023-02-23T12:13:38.517Z,16.85
2023-02-23T12:16:35.493Z,15.10
2023-02-23T12:19:12.551Z,18.52
2023-02-23T12:21:48.496Z,16.38
2023-02-23T12:24:45.641Z,16.30
2023-02-23T12:27:23.253Z,16.38
2023-02-23T12:29:59.308Z,15.27
2023-02-23T12:32:54.680Z,16.35
2023-02-23T12:35:51.611Z,16.80
2023-02-23T12:38:33.387Z,16.52
2023-02-23T12:41:14.953Z,15.10
2023-02-23T12:44:01.643Z,15.95
2023-02-23T12:46:48.444Z,15.43
2023-02-23T12:49:52.536Z,16.27
2023-02-23T12:52:33.897Z,15.50
2023-02-23T12:55:11.636Z,16.40
2023-02-23T12:57:55.011Z,16.58
2023-02-23T13:00:37.823Z,15.45
2023-02-23T13:03:27.002Z,14.90
2023-02-23T13:06:12.215Z,17.50
2023-02-23T13:09:17.442Z,15.90
2023-02-23T13:12:26.569Z,15.68
2023-02-23T13:15:08.201Z,16.17
2023-02-23T13:17:52.212Z,14.82
2023-02-23T13:20:56.443Z,14.73
2023-02-23T13:23:32.478Z,16.90
2023-02-23T13:26:17.585Z,14.98
2023-02-23T13:29:10.896Z,15.35
2023-02-23T13:31:46.788Z,15.37
2023-02-23T13:34:26.439Z,15.23
2023-02-23T13:36:57.105Z,14.52
2023-02-23T13:39:47.698Z,16.65
2023-02-23T13:42:17.911Z,17.20
2023-02-23T13:45:07.156Z,15.73
2023-02-23T13:47:55.590Z,14.57
2023-02-23T13:50:33.951Z,16.00
2023-02-23T13:53:05.421Z,16.02
2023-02-23T13:55:51.264Z,16.77
2023-02-23T13:58:30.607Z,15.98
2023-02-23T14:01:08.385Z,16.63
2023-02-23T14:04:01.231Z,17.13
2023-02-23T14:06:31.768Z,16.98
2023-02-23T14:09:15.593Z,15.60
2023-02-23T14:14:30.460Z,16.25
2023-02-23T14:17:16.418Z,16.48
2023-02-23T14:20:09.846Z,15.10
2023-02-23T14:25:36.570Z,15.40
2023-02-23T14:28:22.162Z,15.55
2023-02-23T14:31:20.524Z,17.67
2023-02-23T14:33:53.103Z,17.50
2023-02-23T14:36:32.589Z,15.82
2023-02-23T14:39:12.486Z,16.98
2023-02-23T14:41:51.476Z,16.23
2023-02-23T14:44:30.800Z,18.55
2023-02-23T14:47:27.904Z,16.40
2023-02-23T14:50:05.139Z,15.70
2023-02-23T14:52:42.144Z,16.95
2023-02-23T14:55:22.111Z,15.70
2023-02-23T14:57:54.315Z,15.80
2023-02-23T15:00:29.239Z,16.98
2023-02-23T15:03:03.020Z,15.60
2023-02-23T15:05:36.933Z,15.60
2023-02-23T15:08:07.842Z,15.43
2023-02-23T15:10:43.435Z,17.27
2023-02-23T15:13:21.509Z,15.52
2023-02-23T15:15:53.125Z,16.15
2023-02-23T15:18:38.546Z,15.85
2023-02-23T15:21:16.256Z,16.27
2023-02-23T15:23:53.128Z,16.48
2023-02-23T15:26:32.338Z,15.57
2023-02-23T15:29:14.805Z,15.68
2023-02-23T15:31:50.805Z,14.85
2023-02-23T15:34:26.584Z,15.77
2023-02-23T15:37:03.372Z,16.05
2023-02-23T15:39:41.842Z,15.70
2023-02-23T15:42:18.825Z,16.63
2023-02-23T15:44:46.825Z,18.25
2023-02-23T15:47:22.398Z,17.00
2023-02-23T15:50:31.165Z,15.10
2023-02-23T15:53:26.169Z,17.90
2023-02-23T15:56:03.030Z,14.50
2023-02-23T15:58:56.440Z,16.30
2023-02-23T16:01:33.688Z,15.55
2023-02-23T16:04:08.177Z,17.83
2023-02-23T16:06:52.784Z,17.83
2023-02-23T16:09:29.247Z,20.42
2023-02-23T16:12:00.065Z,16.52
2023-02-23T16:15:02.835Z,16.05
2023-02-23T16:17:46.187Z,14.77
2023-02-23T16:20:41.555Z,16.02
2023-02-23T16:23:34.454Z,16.13
2023-02-23T16:26:18.640Z,15.45
2023-02-23T16:28:54.062Z,18.42
2023-02-23T16:31:43.270Z,16.95
2023-02-23T16:34:25.802Z,15.95
2023-02-23T16:37:01.543Z,17.33
2023-02-23T16:39:36.284Z,18.17
2023-02-23T16:42:21.226Z,16.85
2023-02-23T16:44:58.612Z,16.63
2023-02-23T16:47:36.701Z,16.90
2023-02-23T16:50:21.116Z,17.35
2023-02-23T16:53:00.476Z,16.58
2023-02-23T16:55:39.295Z,16.52
2023-02-23T16:58:21.536Z,17.50
2023-02-23T17:00:51.973Z,17.20
2023-02-23T17:03:28.655Z,18.67
2023-02-23T17:05:59.508Z,18.13
2023-02-23T17:08:27.314Z,17.90
2023-02-23T17:11:01.826Z,17.25
2023-02-23T17:13:34.817Z,19.25
2023-02-23T17:16:07.074Z,17.50
2023-02-23T17:18:42.645Z,15.95
2023-02-23T17:21:14.929Z,15.13
2023-02-23T17:23:50.910Z,15.35
2023-02-23T17:26:24.328Z,16.27
2023-02-23T17:28:57.717Z,16.35
2023-02-23T17:31:33.493Z,16.42
2023-02-23T17:34:04.620Z,16.35
2023-02-23T17:36:37.571Z,15.68
2023-02-23T17:39:09.659Z,15.00
2023-02-23T17:41:38.356Z,15.90
2023-02-23T17:44:10.711Z,17.42
2023-02-23T17:46:46.193Z,15.60
2023-02-23T17:49:16.626Z,18.13
2023-02-23T17:51:51.336Z,18.15
2023-02-23T17:54:28.800Z,16.77
2023-02-23T17:57:03.882Z,16.65
2023-02-23T17:59:37.939Z,15.93
2023-02-23T18:02:20.834Z,16.42
2023-02-23T18:04:52.304Z,17.73
2023-02-23T18:07:22.027Z,16.15
2023-02-23T18:09:55.414Z,16.25
2023-02-23T18:12:22.954Z,17.10
2023-02-23T18:14:53.740Z,17.10
2023-02-23T18:17:23.715Z,17.45
2023-02-23T18:19:54.443Z,19.20
2023-02-23T18:22:24.928Z,16.65
2023-02-23T18:24:58.297Z,17.45
2023-02-23T18:27:31.976Z,19.00
2023-02-23T18:30:07.480Z,19.38
2023-02-23T18:32:35.218Z,19.60
2023-02-23T18:35:07.739Z,16.17
2023-02-23T18:37:38.912Z,17.70
2023-02-23T18:40:09.652Z,18.95
2023-02-23T18:42:42.088Z,17.60
2023-02-23T18:45:14.635Z,16.27
2023-02-23T18:47:45.001Z,17.75
2023-02-23T18:50:19.685Z,18.08
2023-02-23T18:52:53.182Z,19.23
2023-02-23T18:55:22.286Z,20.05
2023-02-23T18:57:59.156Z,17.15
2023-02-23T19:00:40.221Z,19.52
2023-02-23T19:03:12.860Z,17.95
2023-02-23T19:05:53.041Z,19.52
2023-02-23T19:08:23.373Z,19.25
2023-02-23T19:10:53.964Z,19.25
2023-02-23T19:13:22.293Z,21.30
2023-02-23T19:15:55.449Z,19.60
2023-02-23T19:18:29.060Z,19.52
2023-02-23T19:20:59.629Z,18.08
2023-02-23T19:23:31.266Z,19.25
2023-02-23T19:26:05.532Z,18.63
2023-02-23T19:28:38.828Z,17.70
2023-02-23T19:31:12.253Z,18.30
2023-02-23T19:33:40.884Z,18.63
2023-02-23T19:36:11.429Z,19.80
2023-02-23T19:38:45.754Z,19.48
2023-02-23T19:41:19.253Z,20.13
2023-02-23T19:43:51.915Z,18.90
2023-02-23T19:46:25.891Z,19.80
2023-02-23T19:48:56.769Z,18.02
2023-02-23T19:51:24.628Z,19.20
2023-02-23T19:53:57.223Z,19.25
2023-02-23T19:56:28.075Z,19.98
2023-02-23T19:59:02.049Z,20.75
2023-02-23T20:01:30.193Z,19.65
2023-02-23T20:04:06.594Z,17.65
2023-02-23T20:06:47.344Z,20.75
2023-02-23T20:09:19.205Z,20.27
2023-02-23T20:11:55.158Z,20.08
2023-02-23T20:14:29.706Z,20.02
2023-02-23T20:17:03.741Z,19.33
2023-02-23T20:19:35.021Z,24.30
2023-02-23T20:22:08.911Z,20.40
2023-02-23T20:24:39.514Z,22.35
2023-02-23T20:27:26.543Z,21.48
2023-02-23T20:30:02.732Z,20.08
2023-02-23T20:32:33.203Z,21.80
2023-02-23T20:35:03.864Z,20.83
2023-02-23T20:37:35.085Z,21.88
2023-02-23T20:40:20.105Z,20.88
2023-02-23T20:42:53.598Z,22.13
2023-02-23T20:45:27.312Z,21.55
2023-02-23T20:47:55.646Z,21.38
2023-02-23T20:50:33.902Z,21.73
2023-02-23T20:53:08.841Z,21.48
2023-02-23T20:55:38.586Z,21.95
2023-02-23T20:58:14.509Z,23.70
2023-02-23T21:00:49.035Z,23.23
2023-02-23T21:03:20.108Z,20.83
2023-02-23T21:05:51.692Z,22.67
2023-02-23T21:08:22.496Z,23.55
2023-02-23T21:10:50.404Z,22.58
2023-02-23T21:13:23.341Z,20.83
2023-02-23T21:16:02.170Z,23.45
2023-02-23T21:18:35.571Z,22.65
2023-02-23T21:21:09.994Z,23.52
2023-02-23T21:23:43.533Z,21.25
2023-02-23T21:26:15.369Z,23.52
2023-02-23T21:28:49.380Z,21.98
2023-02-23T21:31:18.262Z,27.45
2023-02-23T21:33:49.138Z,22.15
2023-02-23T21:36:22.599Z,22.55
2023-02-23T21:38:51.328Z,23.98
2023-02-23T21:41:22.595Z,23.27
2023-02-23T21:43:54.078Z,22.63
2023-02-23T21:46:25.669Z,23.63
2023-02-23T21:49:00.234Z,25.38
2023-02-23T21:51:36.469Z,23.02
2023-02-23T21:54:09.360Z,22.75
2023-02-23T21:56:39.717Z,22.90
2023-02-23T21:59:11.116Z,23.35
2023-02-23T22:01:46.165Z,25.42
2023-02-23T22:04:17.755Z,26.88
2023-02-23T22:06:51.109Z,26.02
2023-02-23T22:09:22.470Z,26.15
2023-02-23T22:11:50.175Z,28.08
2023-02-23T22:14:22.306Z,30.23
2023-02-23T22:16:54.494Z,29.98
2023-02-23T22:19:22.097Z,30.80
2023-02-23T22:21:49.467Z,32.20
2023-02-23T22:24:17.546Z,35.70
2023-02-23T22:26:54.518Z,31.23
2023-02-23T22:29:31.993Z,32.42
2023-02-23T22:32:04.729Z,32.17
2023-02-23T22:34:38.336Z,32.10
2023-02-23T22:37:21.987Z,30.60
2023-02-23T22:39:52.237Z,32.42
2023-02-23T22:42:22.273Z,32.45
2023-02-23T22:44:55.324Z,31.80
2023-02-23T22:47:28.612Z,31.98
2023-02-23T22:49:59.866Z,30.88
2023-02-23T22:52:32.691Z,31.75
2023-02-23T22:55:01.323Z,30.27
2023-02-23T22:57:37.224Z,30.02
2023-02-23T23:02:40.758Z,30.20
2023-02-23T23:05:11.759Z,33.42
2023-02-23T23:07:48.872Z,32.22
2023-02-23T23:10:35.308Z,32.80
2023-02-23T23:13:05.186Z,30.63
2023-02-23T23:15:39.183Z,30.63
2023-02-23T23:18:09.779Z,31.08
2023-02-23T23:20:43.906Z,29.25
2023-02-23T23:23:17.253Z,32.60
2023-02-23T23:25:48.946Z,30.42
2023-02-23T23:28:24.280Z,30.38
2023-02-23T23:30:57.689Z,32.63
2023-02-23T23:33:27.294Z,28.60
2023-02-23T23:36:03.405Z,31.23
2023-02-23T23:38:38.606Z,29.08
2023-02-23T23:41:15.350Z,29.40
2023-02-23T23:43:51.565Z,31.13
2023-02-23T23:46:29.874Z,28.60
2023-02-23T23:49:08.248Z,26.85
2023-02-23T23:51:44.777Z,31.25
2023-02-23T23:54:22.908Z,31.65
2023-02-23T23:56:56.116Z,31.52
2023-02-23T23:59:26.757Z,30.90
